createdAt,value
2019-05-10T00:02:39.290Z,55.73
2019-05-10T00:05:33.367Z,59.03
2019-05-10T00:08:27.773Z,56.42
2019-05-10T00:11:05.667Z,63.65
2019-05-10T00:13:48.883Z,62.10
2019-05-10T00:16:26.465Z,57.88
2019-05-10T00:19:02.552Z,57.43
2019-05-10T00:21:38.494Z,56.00
2019-05-10T00:24:14.462Z,56.40
2019-05-10T00:26:50.425Z,55.33
2019-05-10T00:29:26.673Z,53.85
2019-05-10T00:32:02.640Z,51.53
2019-05-10T00:34:38.600Z,53.13
2019-05-10T00:37:14.551Z,47.90
2019-05-10T00:39:50.712Z,53.13
2019-05-10T00:42:27.795Z,54.42
2019-05-10T00:45:04.770Z,49.35
2019-05-10T00:47:40.721Z,45.50
2019-05-10T00:50:16.747Z,50.10
2019-05-10T00:52:53.759Z,47.48
2019-05-10T00:55:29.728Z,57.10
2019-05-10T00:58:05.786Z,65.17
2019-05-10T01:00:41.733Z,55.30
2019-05-10T01:03:17.686Z,49.70
2019-05-10T01:05:53.647Z,43.10
2019-05-10T01:08:29.608Z,41.90
2019-05-10T01:11:06.184Z,44.38
2019-05-10T01:13:42.127Z,41.90
2019-05-10T01:16:18.085Z,47.43
2019-05-10T01:18:54.049Z,45.70
2019-05-10T01:21:30.213Z,50.20
2019-05-10T01:24:07.194Z,51.35
2019-05-10T01:26:43.240Z,62.55
2019-05-10T01:29:19.206Z,57.88
2019-05-10T01:31:55.255Z,59.38
2019-05-10T01:34:31.224Z,59.15
2019-05-10T01:37:07.168Z,65.42
2019-05-10T01:39:43.135Z,57.13
2019-05-10T01:42:19.093Z,56.48
2019-05-10T01:44:55.053Z,56.28
2019-05-10T01:47:31.106Z,51.45
2019-05-10T01:50:08.805Z,54.13
2019-05-10T01:52:44.761Z,58.50
2019-05-10T01:55:20.732Z,59.40
2019-05-10T01:57:56.672Z,54.20
2019-05-10T02:00:32.629Z,45.67
2019-05-10T02:03:08.588Z,50.92
2019-05-10T02:08:19.567Z,60.43
2019-05-10T02:10:55.527Z,52.30
2019-05-10T02:13:32.609Z,53.05
2019-05-10T02:16:08.563Z,51.95
2019-05-10T02:18:44.518Z,51.50
2019-05-10T02:21:20.478Z,47.08
2019-05-10T02:23:56.465Z,53.02
2019-05-10T02:26:32.337Z,56.70
2019-05-10T02:29:08.450Z,59.13
2019-05-10T02:31:44.408Z,60.45
2019-05-10T02:34:20.377Z,56.92
2019-05-10T02:36:56.313Z,54.53
2019-05-10T02:39:32.346Z,58.35
2019-05-10T02:42:08.557Z,55.35
2019-05-10T02:44:44.507Z,59.25
2019-05-10T02:47:20.449Z,59.88
2019-05-10T02:49:58.993Z,56.40
2019-05-10T02:52:34.216Z,61.68
2019-05-10T02:55:10.173Z,57.83
2019-05-10T02:57:47.666Z,59.10
2019-05-10T03:00:25.057Z,53.52
2019-05-10T03:03:01.219Z,54.38
2019-05-10T03:05:39.628Z,59.65
2019-05-10T03:08:16.245Z,57.67
2019-05-10T03:10:57.903Z,63.20
2019-05-10T03:13:34.862Z,65.40
2019-05-10T03:16:12.573Z,60.73
2019-05-10T03:18:54.482Z,54.83
2019-05-10T03:24:06.881Z,53.52
2019-05-10T03:26:50.741Z,55.80
2019-05-10T03:29:22.394Z,59.38
2019-05-10T03:31:58.338Z,55.17
2019-05-10T03:34:34.402Z,53.60
2019-05-10T03:37:10.651Z,52.25
2019-05-10T03:39:46.623Z,55.60
2019-05-10T03:42:22.681Z,49.83
2019-05-10T03:44:59.708Z,49.00
2019-05-10T03:47:35.719Z,45.85
2019-05-10T03:50:12.016Z,45.98
2019-05-10T03:52:51.971Z,44.10
2019-05-10T03:55:25.538Z,42.05
2019-05-10T03:58:01.424Z,40.63
2019-05-10T04:00:37.463Z,41.73
2019-05-10T04:03:13.559Z,32.40
2019-05-10T04:05:50.138Z,38.80
2019-05-10T04:08:26.184Z,34.15
2019-05-10T04:11:02.163Z,28.70
2019-05-10T04:13:38.260Z,33.95
2019-05-10T04:16:14.186Z,35.40
2019-05-10T04:18:50.200Z,26.85
2019-05-10T04:21:26.170Z,29.20
2019-05-10T04:24:02.113Z,27.52
2019-05-10T04:26:38.020Z,26.20
2019-05-10T04:29:13.911Z,23.40
2019-05-10T04:31:49.893Z,23.92
2019-05-10T04:34:25.813Z,22.27
2019-05-10T04:37:01.770Z,23.83
2019-05-10T04:39:38.026Z,23.20
2019-05-10T04:42:13.934Z,22.50
2019-05-10T04:44:53.227Z,24.85
2019-05-10T04:47:27.503Z,22.27
2019-05-10T04:50:03.597Z,23.10
2019-05-10T04:52:39.535Z,22.35
2019-05-10T04:55:15.491Z,23.42
2019-05-10T04:57:51.581Z,22.85
2019-05-10T05:00:27.612Z,25.12
2019-05-10T05:03:03.680Z,26.25
2019-05-10T05:05:39.624Z,25.00
2019-05-10T05:08:15.589Z,28.15
2019-05-10T05:10:51.680Z,29.45
2019-05-10T05:13:27.705Z,32.00
2019-05-10T05:16:03.756Z,29.77
2019-05-10T05:18:39.714Z,31.12
2019-05-10T05:21:15.770Z,28.35
2019-05-10T05:23:51.737Z,31.82
2019-05-10T05:26:27.772Z,34.98
2019-05-10T05:29:03.845Z,32.65
2019-05-10T05:31:39.813Z,28.17
2019-05-10T05:34:15.757Z,29.40
2019-05-10T05:36:51.726Z,30.82
2019-05-10T05:39:27.677Z,30.82
2019-05-10T05:42:03.576Z,28.55
2019-05-10T05:44:39.594Z,25.10
2019-05-10T05:47:15.552Z,25.08
2019-05-10T05:49:51.495Z,28.40
2019-05-10T05:52:27.574Z,29.20
2019-05-10T05:55:04.644Z,24.75
2019-05-10T05:57:40.592Z,22.00
2019-05-10T06:00:17.337Z,23.77
2019-05-10T06:02:53.329Z,20.82
2019-05-10T06:05:34.896Z,17.32
2019-05-10T06:08:21.850Z,19.23
2019-05-10T06:10:56.484Z,17.42
2019-05-10T06:13:23.544Z,18.73
2019-05-10T06:16:05.815Z,17.50
2019-05-10T06:18:41.578Z,21.40
2019-05-10T06:21:17.931Z,19.77
2019-05-10T06:23:53.471Z,17.27
2019-05-10T06:26:29.428Z,26.85
2019-05-10T06:29:16.135Z,17.20
2019-05-10T06:31:43.498Z,16.85
2019-05-10T06:34:19.461Z,17.32
2019-05-10T06:36:55.412Z,13.88
2019-05-10T06:39:31.359Z,14.03
2019-05-10T06:42:07.324Z,12.93
2019-05-10T06:44:43.282Z,14.38
2019-05-10T06:47:21.832Z,13.22
2019-05-10T06:49:57.027Z,15.53
2019-05-10T06:52:32.993Z,11.57
2019-05-10T06:55:09.257Z,13.38
2019-05-10T06:57:50.430Z,14.25
2019-05-10T07:00:22.901Z,14.93
2019-05-10T07:02:58.859Z,17.70
2019-05-10T07:05:34.926Z,15.80
2019-05-10T07:08:19.745Z,12.53
2019-05-10T07:10:48.575Z,15.23
2019-05-10T07:13:24.526Z,12.07
2019-05-10T07:16:00.696Z,14.60
2019-05-10T07:18:36.642Z,12.28
2019-05-10T07:21:12.599Z,12.37
2019-05-10T07:23:48.552Z,15.03
2019-05-10T07:26:26.850Z,10.45
2019-05-10T07:29:02.107Z,11.00
2019-05-10T07:31:38.075Z,12.78
2019-05-10T07:34:15.738Z,6.47
2019-05-10T07:36:51.716Z,8.03
2019-05-10T07:39:28.183Z,5.33
2019-05-10T07:42:06.673Z,9.80
2019-05-10T07:44:46.737Z,7.50
2019-05-10T07:47:23.821Z,6.75
2019-05-10T07:49:57.134Z,4.42
2019-05-10T07:52:36.418Z,9.13
2019-05-10T07:55:11.207Z,4.97
2019-05-10T07:57:47.103Z,4.97
2019-05-10T08:00:25.358Z,5.60
2019-05-10T08:03:12.427Z,5.28
2019-05-10T08:05:39.180Z,4.15
2019-05-10T08:08:15.388Z,5.72
2019-05-10T08:10:51.344Z,5.25
2019-05-10T08:13:28.381Z,5.62
2019-05-10T08:16:11.853Z,5.55
2019-05-10T08:18:44.846Z,5.85
2019-05-10T08:21:23.938Z,7.53
2019-05-10T08:23:59.140Z,6.60
2019-05-10T08:26:36.508Z,5.45
2019-05-10T08:29:16.640Z,6.92
2019-05-10T08:31:53.623Z,10.90
2019-05-10T08:34:28.818Z,6.20
2019-05-10T08:37:06.768Z,6.20
2019-05-10T08:39:47.886Z,6.28
2019-05-10T08:42:40.117Z,5.55
2019-05-10T08:45:04.126Z,4.53
2019-05-10T08:47:35.827Z,6.65
2019-05-10T08:50:28.820Z,7.53
2019-05-10T08:52:49.680Z,7.53
2019-05-10T08:55:25.642Z,4.95
2019-05-10T08:58:02.918Z,4.85
2019-05-10T09:00:50.595Z,6.20
2019-05-10T09:03:18.594Z,4.50
2019-05-10T09:05:54.285Z,6.28
2019-05-10T09:08:34.168Z,5.08
2019-05-10T09:11:08.952Z,6.60
2019-05-10T09:13:46.077Z,6.65
2019-05-10T09:16:23.744Z,4.40
2019-05-10T09:19:02.395Z,6.12
2019-05-10T09:21:41.225Z,5.62
2019-05-10T09:24:16.725Z,8.38
2019-05-10T09:26:56.832Z,4.47
2019-05-10T09:29:35.241Z,4.55
2019-05-10T09:32:08.992Z,6.00
2019-05-10T09:34:44.907Z,5.00
2019-05-10T09:37:22.851Z,4.35
2019-05-10T09:40:05.399Z,5.95
2019-05-10T09:42:39.945Z,4.50
2019-05-10T09:45:14.327Z,6.10
2019-05-10T09:47:52.877Z,4.83
2019-05-10T09:50:30.313Z,7.22
2019-05-10T09:53:07.331Z,4.95
2019-05-10T09:55:45.527Z,4.92
2019-05-10T09:58:22.298Z,6.47
2019-05-10T10:01:13.904Z,7.50
2019-05-10T10:03:43.277Z,7.72
2019-05-10T10:06:13.936Z,6.17
2019-05-10T10:08:53.389Z,9.58
2019-05-10T10:11:27.936Z,6.58
2019-05-10T10:14:04.063Z,6.40
2019-05-10T10:16:40.022Z,7.28
2019-05-10T10:19:18.134Z,5.62
2019-05-10T10:21:54.688Z,9.50
2019-05-10T10:24:30.654Z,6.70
2019-05-10T10:27:07.436Z,8.53
2019-05-10T10:29:43.482Z,5.85
2019-05-10T10:32:19.450Z,10.38
2019-05-10T10:34:57.674Z,10.85
2019-05-10T10:37:33.095Z,7.83
2019-05-10T10:40:09.727Z,12.37
2019-05-10T10:42:47.309Z,9.95
2019-05-10T10:45:23.428Z,7.67
2019-05-10T10:48:02.485Z,5.80
2019-05-10T10:50:37.188Z,8.73
2019-05-10T10:53:13.270Z,7.10
2019-05-10T10:55:54.626Z,8.55
2019-05-10T10:58:27.602Z,9.63
2019-05-10T11:01:10.544Z,10.88
2019-05-10T11:03:41.461Z,6.47
2019-05-10T11:06:17.523Z,8.08
2019-05-10T11:08:53.474Z,6.47
2019-05-10T11:11:38.186Z,9.08
2019-05-10T11:14:07.746Z,11.08
2019-05-10T11:16:46.719Z,10.65
2019-05-10T11:19:21.518Z,9.35
2019-05-10T11:22:04.368Z,8.55
2019-05-10T11:24:35.162Z,8.50
2019-05-10T11:27:15.194Z,9.13
2019-05-10T11:29:52.706Z,14.85
2019-05-10T11:32:26.504Z,12.53
2019-05-10T11:35:05.443Z,8.53
2019-05-10T11:37:42.102Z,8.28
2019-05-10T11:40:27.763Z,14.25
2019-05-10T11:42:55.965Z,8.65
2019-05-10T11:45:35.321Z,11.65
2019-05-10T11:48:11.006Z,10.25
2019-05-10T11:50:47.107Z,16.00
2019-05-10T11:53:24.033Z,14.18
2019-05-10T11:56:02.024Z,9.25
2019-05-10T11:58:46.060Z,9.93
2019-05-10T12:01:19.271Z,6.78
2019-05-10T12:03:53.768Z,5.72
2019-05-10T12:06:31.965Z,8.00
2019-05-10T12:09:08.019Z,7.70
2019-05-10T12:14:22.029Z,5.75
2019-05-10T12:16:58.038Z,5.95
2019-05-10T12:19:47.707Z,9.40
2019-05-10T12:22:15.887Z,7.75
2019-05-10T12:26:18.917Z,7.25
2019-05-10T12:26:58.872Z,5.92
2019-05-10T12:27:40.054Z,5.83
2019-05-10T12:30:11.486Z,5.78
2019-05-10T12:32:55.782Z,5.10
2019-05-10T12:35:26.432Z,5.47
2019-05-10T12:38:01.976Z,7.55
2019-05-10T12:40:38.132Z,6.28
2019-05-10T12:43:14.128Z,5.35
2019-05-10T12:45:51.757Z,5.58
2019-05-10T12:48:27.637Z,6.05
2019-05-10T12:51:07.746Z,5.92
2019-05-10T12:53:44.586Z,6.03
2019-05-10T12:56:19.244Z,5.08
2019-05-10T12:58:57.608Z,5.45
2019-05-10T13:01:33.254Z,4.50
2019-05-10T13:04:14.877Z,7.08
2019-05-10T13:06:47.032Z,4.33
2019-05-10T13:09:36.337Z,3.98
2019-05-10T13:12:04.085Z,3.37
2019-05-10T13:14:40.115Z,3.02
2019-05-10T13:17:17.117Z,4.83
2019-05-10T13:19:58.641Z,2.70
2019-05-10T13:22:36.755Z,3.80
2019-05-10T13:25:09.272Z,4.62
2019-05-10T13:27:45.215Z,3.30
2019-05-10T13:30:27.065Z,3.25
2019-05-10T13:33:00.346Z,3.47
2019-05-10T13:35:36.473Z,2.35
2019-05-10T13:38:12.428Z,2.75
2019-05-10T13:40:48.370Z,2.85
2019-05-10T13:43:27.112Z,5.58
2019-05-10T13:46:02.253Z,2.10
2019-05-10T13:48:38.206Z,5.05
2019-05-10T13:51:14.464Z,2.58
2019-05-10T13:53:53.896Z,3.72
2019-05-10T13:56:28.162Z,3.00
2019-05-10T13:59:15.096Z,2.80
2019-05-10T14:01:44.147Z,1.92
2019-05-10T14:04:23.035Z,2.42
2019-05-10T14:06:57.257Z,2.58
2019-05-10T14:09:33.161Z,3.95
2019-05-10T14:12:09.176Z,3.02
2019-05-10T14:14:45.330Z,3.77
2019-05-10T14:17:21.289Z,2.70
2019-05-10T14:19:57.317Z,1.92
2019-05-10T14:22:33.259Z,2.77
2019-05-10T14:25:09.766Z,2.58
2019-05-10T14:27:45.725Z,2.62
2019-05-10T14:30:22.195Z,5.08
2019-05-10T14:32:58.187Z,3.12
2019-05-10T14:35:34.207Z,5.58
2019-05-10T14:38:10.683Z,3.67
2019-05-10T14:40:46.839Z,4.47
2019-05-10T14:43:22.793Z,3.20
2019-05-10T14:45:58.761Z,3.42
2019-05-10T14:48:35.586Z,3.42
2019-05-10T14:51:13.822Z,8.35
2019-05-10T14:53:49.395Z,5.53
2019-05-10T14:56:26.162Z,2.83
2019-05-10T14:59:02.134Z,3.40
2019-05-10T15:05:01.987Z,3.90
2019-05-10T15:07:42.520Z,3.35
2019-05-10T15:10:20.330Z,4.20
2019-05-10T15:13:05.221Z,3.75
2019-05-10T15:15:41.459Z,4.15
2019-05-10T15:18:17.401Z,5.85
2019-05-10T15:20:53.361Z,3.15
2019-05-10T15:23:29.416Z,2.37
2019-05-10T15:26:11.451Z,6.33
2019-05-10T15:28:45.806Z,4.85
2019-05-10T15:31:23.772Z,7.87
2019-05-10T15:34:04.169Z,3.83
2019-05-10T15:36:37.377Z,2.47
2019-05-10T15:39:30.512Z,2.08
2019-05-10T15:42:10.966Z,3.47
2019-05-10T15:44:49.421Z,2.58
2019-05-10T15:47:25.306Z,3.27
2019-05-10T15:50:01.627Z,1.50
2019-05-10T15:52:39.469Z,1.75
2019-05-10T15:55:17.111Z,1.90
2019-05-10T15:57:57.743Z,2.75
2019-05-10T16:00:38.720Z,2.65
2019-05-10T16:03:09.145Z,1.80
2019-05-10T16:05:58.874Z,4.83
2019-05-10T16:08:24.040Z,3.27
2019-05-10T16:11:00.253Z,1.60
2019-05-10T16:13:36.131Z,2.70
2019-05-10T16:16:12.065Z,2.37
2019-05-10T16:18:48.032Z,2.02
2019-05-10T16:21:23.945Z,12.28
2019-05-10T16:23:59.829Z,4.65
2019-05-10T16:26:35.799Z,3.62
2019-05-10T16:29:11.742Z,3.42
2019-05-10T16:31:47.700Z,2.95
2019-05-10T16:34:26.336Z,2.75
2019-05-10T16:37:01.261Z,4.03
2019-05-10T16:39:37.219Z,5.53
2019-05-10T16:42:13.380Z,4.35
2019-05-10T16:44:49.324Z,5.80
2019-05-10T16:47:25.295Z,6.42
2019-05-10T16:50:01.250Z,6.80
2019-05-10T16:52:38.846Z,8.43
2019-05-10T16:55:14.798Z,7.78
2019-05-10T16:57:50.746Z,7.10
2019-05-10T17:00:26.675Z,8.68
2019-05-10T17:03:02.669Z,7.92
2019-05-10T17:05:52.331Z,8.18
2019-05-10T17:08:16.193Z,8.75
2019-05-10T17:10:52.103Z,10.70
2019-05-10T17:13:28.012Z,10.15
2019-05-10T17:16:03.893Z,8.68
2019-05-10T17:18:39.833Z,7.30
2019-05-10T17:21:15.698Z,7.17
2019-05-10T17:23:51.611Z,10.53
2019-05-10T17:26:27.486Z,11.43
2019-05-10T17:29:07.166Z,15.35
2019-05-10T17:31:45.521Z,8.48
2019-05-10T17:34:27.548Z,9.33
2019-05-10T17:36:58.022Z,9.30
2019-05-10T17:39:34.261Z,7.53
2019-05-10T17:42:10.210Z,10.68
2019-05-10T17:44:46.129Z,9.60
2019-05-10T17:47:22.064Z,7.80
2019-05-10T17:49:57.957Z,9.35
2019-05-10T17:52:33.945Z,12.40
2019-05-10T17:55:16.920Z,11.80
2019-05-10T17:57:48.744Z,15.32
2019-05-10T18:00:25.497Z,14.33
2019-05-10T18:03:01.717Z,15.55
2019-05-10T18:05:41.241Z,24.87
2019-05-10T18:08:15.202Z,30.08
2019-05-10T18:10:51.120Z,30.15
2019-05-10T18:13:27.078Z,17.30
2019-05-10T18:16:04.614Z,27.90
2019-05-10T18:18:46.209Z,37.98
2019-05-10T18:21:21.826Z,33.48
2019-05-10T18:23:58.322Z,40.55
2019-05-10T18:26:34.180Z,34.75
2019-05-10T18:29:11.186Z,50.98
2019-05-10T18:31:54.670Z,51.98
2019-05-10T18:34:26.267Z,52.60
2019-05-10T18:37:02.360Z,61.98
2019-05-10T18:39:39.267Z,57.33
2019-05-10T18:42:18.880Z,23.38
2019-05-10T18:44:54.202Z,23.87
2019-05-10T18:47:30.156Z,16.93
2019-05-10T18:50:06.696Z,20.23
2019-05-10T18:52:42.599Z,31.68
2019-05-10T18:55:18.529Z,28.12
2019-05-10T18:57:54.416Z,22.07
2019-05-10T19:00:30.311Z,19.90
2019-05-10T19:03:06.333Z,19.95
2019-05-10T19:05:42.253Z,23.30
2019-05-10T19:08:18.235Z,25.05
2019-05-10T19:10:54.231Z,26.75
2019-05-10T19:13:33.568Z,23.50
2019-05-10T19:16:07.790Z,25.20
2019-05-10T19:18:43.838Z,24.25
2019-05-10T19:21:19.731Z,26.07
2019-05-10T19:23:55.659Z,32.67
2019-05-10T19:26:31.785Z,34.48
2019-05-10T19:29:07.798Z,33.65
2019-05-10T19:31:44.085Z,36.68
2019-05-10T19:34:24.583Z,29.65
2019-05-10T19:37:00.894Z,28.32
2019-05-10T19:39:36.817Z,25.68
2019-05-10T19:42:12.700Z,33.98
2019-05-10T19:44:48.652Z,30.45
2019-05-10T19:47:24.592Z,32.38
2019-05-10T19:50:00.497Z,30.92
2019-05-10T19:52:36.380Z,29.02
2019-05-10T19:55:19.356Z,29.65
2019-05-10T19:57:54.828Z,30.12
2019-05-10T20:00:27.739Z,28.80
2019-05-10T20:03:03.630Z,32.15
2019-05-10T20:05:39.533Z,63.20
2019-05-10T20:08:15.452Z,34.43
2019-05-10T20:10:51.343Z,18.00
2019-05-10T20:13:27.885Z,16.00
2019-05-10T20:16:03.886Z,16.37
2019-05-10T20:18:39.882Z,21.35
2019-05-10T20:21:15.786Z,16.62
2019-05-10T20:23:51.708Z,18.12
2019-05-10T20:26:27.623Z,17.55
2019-05-10T20:29:03.577Z,21.70
2019-05-10T20:31:39.458Z,17.55
2019-05-10T20:34:15.409Z,19.62
2019-05-10T20:36:51.294Z,20.20
2019-05-10T20:39:27.258Z,19.80
2019-05-10T20:42:03.201Z,23.27
2019-05-10T20:44:39.079Z,17.35
2019-05-10T20:47:15.009Z,17.40
2019-05-10T20:49:50.931Z,25.52
2019-05-10T20:52:26.826Z,17.98
2019-05-10T20:55:02.793Z,17.60
2019-05-10T20:57:38.687Z,19.45
2019-05-10T21:00:14.770Z,19.37
2019-05-10T21:02:50.689Z,19.60
2019-05-10T21:05:26.861Z,21.55
2019-05-10T21:08:16.014Z,20.75
2019-05-10T21:10:40.366Z,21.10
2019-05-10T21:13:16.297Z,17.57
2019-05-10T21:15:52.499Z,17.30
2019-05-10T21:18:28.421Z,17.55
2019-05-10T21:21:04.441Z,19.40
2019-05-10T21:23:40.404Z,23.02
2019-05-10T21:26:16.317Z,17.45
2019-05-10T21:28:52.225Z,15.35
2019-05-10T21:31:29.114Z,15.55
2019-05-10T21:34:09.822Z,14.25
2019-05-10T21:36:42.668Z,16.12
2019-05-10T21:39:18.549Z,14.45
2019-05-10T21:41:54.466Z,14.25
2019-05-10T21:44:30.420Z,17.70
2019-05-10T21:47:06.325Z,15.48
2019-05-10T21:49:42.285Z,18.37
2019-05-10T21:52:18.203Z,18.98
2019-05-10T21:54:54.111Z,15.80
2019-05-10T21:57:30.042Z,15.23
2019-05-10T22:00:08.135Z,16.70
2019-05-10T22:02:45.585Z,14.75
2019-05-10T22:05:21.468Z,16.65
2019-05-10T22:07:57.382Z,19.17
2019-05-10T22:10:33.347Z,17.98
2019-05-10T22:13:09.238Z,20.30
2019-05-10T22:15:45.202Z,18.75
2019-05-10T22:18:21.113Z,20.90
2019-05-10T22:20:57.030Z,21.40
2019-05-10T22:23:32.911Z,21.55
2019-05-10T22:26:08.863Z,25.43
2019-05-10T22:28:44.798Z,26.80
2019-05-10T22:31:20.790Z,32.23
2019-05-10T22:33:56.713Z,29.45
2019-05-10T22:36:32.599Z,26.00
2019-05-10T22:39:09.568Z,22.05
2019-05-10T22:41:45.456Z,18.00
2019-05-10T22:44:21.413Z,18.65
2019-05-10T22:46:57.296Z,17.37
2019-05-10T22:49:33.210Z,13.95
2019-05-10T22:52:09.137Z,14.28
2019-05-10T22:54:45.025Z,14.20
2019-05-10T22:57:20.977Z,13.18
2019-05-10T22:59:56.921Z,15.03
2019-05-10T23:02:33.278Z,13.70
2019-05-10T23:05:09.200Z,15.53
2019-05-10T23:07:45.199Z,18.82
2019-05-10T23:10:21.160Z,18.75
2019-05-10T23:12:57.077Z,15.58
2019-05-10T23:15:33.043Z,17.52
2019-05-10T23:18:09.113Z,15.50
2019-05-10T23:20:45.180Z,15.58
2019-05-10T23:23:21.224Z,15.30
2019-05-10T23:25:57.306Z,16.95
2019-05-10T23:28:33.265Z,26.35
2019-05-10T23:31:09.209Z,29.42
2019-05-10T23:33:45.164Z,25.30
2019-05-10T23:36:21.121Z,25.88
2019-05-10T23:38:57.088Z,27.27
2019-05-10T23:41:33.045Z,35.98
2019-05-10T23:44:09.001Z,111.12
2019-05-10T23:46:44.934Z,83.30
2019-05-10T23:49:20.889Z,25.37
2019-05-10T23:51:56.857Z,18.07
2019-05-10T23:54:32.827Z,20.35
2019-05-10T23:57:08.775Z,18.45
2019-05-10T23:59:44.839Z,17.60
